Arlington, Texas
Current Conditions -  °F | °C
As of 9:50 AM on Monday 24 Nov 2014 (Local Time) from KGPM Reporting Station
Clear Clear  
Wind Chill: 10°   Ceiling: Unl
Heat Index: 10°   Visibility: 10mi
Dew Point:   Wind: 7mph
Humidity: 50%   Direction: 300°WNW
Pressure: 30.09"   Gusts: NA
Location:  32.74°N, 97.11°W
Report Text: KGPM 241550Z 30006KT 10SM SKC 10/00 A3009
Loading
Personal Weather Stations






























Interactive Weather Map New forecast layout! Learn more

10-Day Weather Forecast

Advertisements
Track Severe Weather on mobile